Terminal Aerodrome Forecast
Issued by NWS

Home | Current Version | Previous Version | Text Only | Print | Product List | Glossary On
Versions: 1 2 3 4 5 6 7 8 9 10 11 12 13 14 15 16 17 18 19 20 21 22 23 24 25 26 27 28 29 30 31 32 33
000
FTPQ31 PGUM 200000 AAA
TAFPQ
TAF AMD
PGWT 200014Z 2000/2024 12009KT P6SM VCTS SCT016CB SCT040 BKN120
      TEMPO 2000/2002 -SHRA SCT014CB BKN030
     FM200200 12011G18KT P6SM VCSH FEW018 SCT040 SCT120
     FM200900 13010KT P6SM VCSH FEW018 SCT040=

USA.gov is the U.S. government's official web portal to all federal, state and local government web resources and services.